Berge Ishizuchi — 3FQK2 — position and weather

sailwx.info

Track history (hours):
 
Tides and Currents Weather Stations Pressure Air Temp Water Temp Dewpoint Dewpoint Depression Visibility Wind Speed Wind Dir Waves Ship Positions

Berge Ishizuchi

Last reported at 2018-Jun-13 06:00 UTC. Time now 2018-Jun-24 03:32 UTC.
Position N 49°52' W 005°10'.
Warning: this ship's position is 10 days out of date.

Length 292 m; draft 10.8 m.

Type: Cargo ship. MMSI: 353562000.

Date/timePositionNaut miles runAvg speedWind from/ knotsBaromVisibWave heightAir tempDewpointWater temp
2018-Jun-13 06:00N 49°52' W 005°10'611.2
2018-Jun-13 05:30N 49°56' W 005°05'611.3
2018-Jun-13 05:00N 50°01' W 005°01'5 9.2
2018-Jun-13 04:31N 50°06' W 005°02'2 1.3
2018-Jun-13 03:01N 50°07' W 005°03'0 0.1
2018-Jun-13 02:37N 50°07' W 005°03'0 0.2
2018-Jun-13 02:25N 50°07' W 005°03'0 0.1
2018-Jun-13 01:16N 50°07' W 005°03'0 0.3
2018-Jun-13 00:58N 50°07' W 005°03'0 0.1
2018-Jun-13 00:13N 50°07' W 005°03'0 0.0
2018-Jun-12 23:43N 50°07' W 005°03'0 0.0
2018-Jun-12 23:22N 50°07' W 005°03'0 0.1
2018-Jun-12 22:49N 50°07' W 005°03'0 0.0
2018-Jun-12 22:22N 50°07' W 005°03'0 0.0
2018-Jun-12 21:46N 50°07' W 005°03'0 0.1
2018-Jun-12 21:28N 50°07' W 005°03'0 0.1
2018-Jun-12 20:41N 50°07' W 005°03'0 2.4
2018-Jun-12 20:30N 50°07' W 005°03'2 4.8
2018-Jun-12 20:00N 50°05' W 005°01'3 5.6
2018-Jun-12 19:30N 50°04' W 004°56'4 7.1
2018-Jun-12 19:00N 50°03' W 004°51'510.1
2018-Jun-12 18:30N 50°02' W 004°43'4 8.3
2018-Jun-12 18:00N 50°01' W 004°37'611.1
2018-Jun-12 17:30N 50°01' W 004°28'610.7
2018-Jun-12 16:55N 50°00' W 004°19'510.6
2018-Jun-12 16:25N 50°00' W 004°10'410.5
2018-Jun-12 16:00N 49°60' W 004°04'710.8
2018-Jun-12 15:24N 49°60' W 003°54'411.0
2018-Jun-12 15:00N 49°60' W 003°47'611.4
2018-Jun-12 14:30N 49°60' W 003°38'611.5
2018-Jun-12 14:00N 49°59' W 003°29'612.2
2018-Jun-12 13:31N 49°59' W 003°20'612.8
2018-Jun-12 13:00N 49°59' W 003°10'713.3
2018-Jun-12 12:30N 49°58' W 002°59'713.9
2018-Jun-12 12:01N 49°60' W 002°49'714.1
2018-Jun-12 11:30N 50°02' W 002°38'713.8
2018-Jun-12 11:00N 50°04' W 002°28'713.4
2018-Jun-12 10:27N 50°06' W 002°17'612.8
2018-Jun-12 10:00N 50°07' W 002°08'612.0
2018-Jun-12 09:30N 50°09' W 001°59'611.1
2018-Jun-12 09:00N 50°11' W 001°51'510.2
2018-Jun-12 08:31N 50°12' W 001°43'5 9.5
2018-Jun-12 08:00N 50°13' W 001°36'5 9.1
2018-Jun-12 07:30N 50°14' W 001°29'4 8.6
2018-Jun-12 07:00N 50°16' W 001°23'4 8.5
2018-Jun-12 06:30N 50°17' W 001°16'4 8.5
2018-Jun-12 06:01N 50°18' W 001°10'4 8.6
2018-Jun-12 05:30N 50°19' W 001°04'5 9.5
2018-Jun-12 05:00N 50°20' W 000°56'510.6
2018-Jun-12 04:30N 50°22' W 000°48'611.2
2018-Jun-12 04:00N 50°23' W 000°40'611.8
2018-Jun-12 03:30N 50°25' W 000°31'612.4
2018-Jun-12 03:00N 50°27' W 000°22'712.9
2018-Jun-12 02:30N 50°28' W 000°12'612.9
2018-Jun-12 02:00N 50°30' W 000°02'613.0
2018-Jun-12 01:30N 50°31' E 000°08'613.0
2018-Jun-12 01:00N 50°33' E 000°18'612.7
2018-Jun-12 00:30N 50°34' E 000°28'612.4
2018-Jun-12 00:00N 50°37' E 000°37'611.9
2018-Jun-11 23:30N 50°40' E 000°45'611.5
2018-Jun-11 23:00N 50°43' E 000°52'611.0
2018-Jun-11 22:30N 50°46' E 000°59'510.8
2018-Jun-11 22:00N 50°49' E 001°06'510.4
2018-Jun-11 21:30N 50°52' E 001°14'5 9.8
2018-Jun-11 21:00N 50°55' E 001°19'510.7
2018-Jun-11 20:30N 50°60' E 001°24'611.6
2018-Jun-11 20:00N 51°04' E 001°31'510.8
2018-Jun-11 19:30N 51°07' E 001°38'4 9.0
2018-Jun-11 19:00N 51°05' E 001°44'4 8.5
2018-Jun-11 18:30N 51°02' E 001°50'611.7
2018-Jun-11 18:00N 51°02' E 001°59'714.9
2018-Jun-11 17:30N 51°03' E 002°11'713.1
2018-Jun-11 17:00N 51°04' E 002°21'1 1.5
2018-Jun-11 16:30N 51°03' E 002°20'0 0.0
2018-Jun-11 16:00N 51°03' E 002°20'0 0.5
2018-Jun-11 15:30N 51°03' E 002°20'0 0.6
2018-Jun-11 15:00N 51°03' E 002°20'0 0.0
2018-Jun-11 14:27N 51°03' E 002°20'0 0.0
2018-Jun-11 14:00N 51°03' E 002°20'0 0.0
2018-Jun-11 13:30N 51°03' E 002°20'0 0.0
2018-Jun-11 13:00N 51°03' E 002°20'0 0.0
2018-Jun-11 12:30N 51°03' E 002°20'0 0.0
2018-Jun-11 12:00N 51°03' E 002°20'0 0.0
2018-Jun-11 11:30N 51°03' E 002°20'0 0.0
2018-Jun-11 11:00N 51°03' E 002°20'0 0.0
2018-Jun-11 10:30N 51°03' E 002°20'0 0.0
2018-Jun-11 10:00N 51°03' E 002°20'0 0.0
2018-Jun-11 09:30N 51°03' E 002°20'0 0.0
2018-Jun-11 09:00N 51°03' E 002°20'0 0.0
2018-Jun-11 08:30N 51°03' E 002°20'0 0.0
2018-Jun-11 08:00N 51°03' E 002°20'0 0.0
2018-Jun-11 07:30N 51°03' E 002°20'0 0.0
2018-Jun-11 06:57N 51°03' E 002°20'0 0.0
2018-Jun-11 06:24N 51°03' E 002°20'0 0.0
2018-Jun-11 06:00N 51°03' E 002°20'0 0.0
2018-Jun-11 05:30N 51°03' E 002°20'0 0.0
2018-Jun-11 04:57N 51°03' E 002°20'0 0.0
2018-Jun-11 04:24N 51°03' E 002°20'0 0.0
2018-Jun-11 04:00N 51°03' E 002°20'0 0.0
2018-Jun-11 03:30N 51°03' E 002°20'0 0.0
2018-Jun-11 03:00N 51°03' E 002°20'0 0.0
2018-Jun-11 02:30N 51°03' E 002°20'0 0.0
2018-Jun-11 02:00N 51°03' E 002°20'0 0.0
2018-Jun-11 01:30N 51°03' E 002°20'0 0.0
2018-Jun-11 01:00N 51°03' E 002°20'0 0.0
2018-Jun-11 00:27N 51°03' E 002°20'0 0.0
2018-Jun-11 00:00N 51°03' E 002°20'0 0.0
2018-Jun-10 23:30N 51°03' E 002°20'0 0.0
2018-Jun-10 23:00N 51°03' E 002°20'0 0.0
2018-Jun-10 22:27N 51°03' E 002°20'0 0.0
2018-Jun-10 21:36N 51°03' E 002°20'0 0.1
2018-Jun-10 21:30N 51°03' E 002°20'0 0.0
2018-Jun-10 20:54N 51°03' E 002°20'0 0.0
2018-Jun-10 20:30N 51°03' E 002°20'0 0.0
2018-Jun-10 20:00N 51°03' E 002°20'0 0.0
2018-Jun-10 19:27N 51°03' E 002°20'0 0.0
2018-Jun-10 19:00N 51°03' E 002°20'0 0.0
2018-Jun-10 18:30N 51°03' E 002°20'0 0.0
2018-Jun-10 17:57N 51°03' E 002°20'0 0.0
2018-Jun-10 17:30N 51°03' E 002°20'0 0.0
2018-Jun-10 16:57N 51°03' E 002°20'0 0.0
2018-Jun-10 16:30N 51°03' E 002°20'0 0.0
2018-Jun-10 16:01N 51°03' E 002°20'0 0.0
2018-Jun-10 15:30N 51°03' E 002°20'0 0.0
2018-Jun-10 15:00N 51°03' E 002°20'0 0.0
2018-Jun-10 14:30N 51°03' E 002°20'0 0.0
2018-Jun-10 13:30N 51°03' E 002°20'0 0.0
2018-Jun-10 13:00N 51°03' E 002°20'0 0.0
2018-Jun-10 12:30N 51°03' E 002°20'0 0.0
2018-Jun-10 11:57N 51°03' E 002°20'0 0.0
2018-Jun-10 11:24N 51°03' E 002°20'0 0.0
2018-Jun-10 10:57N 51°03' E 002°20'0 0.0
2018-Jun-10 10:30N 51°03' E 002°20'0 0.0
2018-Jun-10 10:00N 51°03' E 002°20'0 0.0
2018-Jun-10 09:30N 51°03' E 002°20'0 0.0
2018-Jun-10 09:00N 51°03' E 002°20'0 0.0
2018-Jun-10 08:30N 51°03' E 002°20'0 0.0
2018-Jun-10 08:00N 51°03' E 002°20'0 0.0
2018-Jun-10 07:24N 51°03' E 002°20'0 0.0
2018-Jun-10 07:00N 51°03' E 002°20'0 0.0
2018-Jun-10 06:30N 51°03' E 002°20'0 0.0
2018-Jun-10 06:00N 51°03' E 002°20'0 0.0
2018-Jun-10 05:30N 51°03' E 002°20'0 0.0
2018-Jun-10 04:57N 51°03' E 002°20'0 0.0
2018-Jun-10 04:00N 51°03' E 002°20'0 0.0
2018-Jun-10 03:30N 51°03' E 002°20'0 0.0
2018-Jun-10 03:00N 51°03' E 002°20'0 0.0
2018-Jun-10 02:30N 51°03' E 002°20'0 0.0
2018-Jun-10 02:00N 51°03' E 002°20'0 0.0
2018-Jun-10 01:30N 51°03' E 002°20'0 0.0
2018-Jun-10 01:00N 51°03' E 002°20'0 0.0
2018-Jun-10 00:30N 51°03' E 002°20'0 0.0
2018-Jun-10 00:00N 51°03' E 002°20'0 0.0
2018-Jun-09 23:18N 51°03' E 002°20'0 0.0
2018-Jun-09 22:57N 51°03' E 002°20'0 0.0
2018-Jun-09 22:30N 51°03' E 002°20'0 0.0
2018-Jun-09 21:57N 51°03' E 002°20'0 0.0
2018-Jun-09 21:30N 51°03' E 002°20'0 0.0
2018-Jun-09 21:00N 51°03' E 002°20'0 0.0
2018-Jun-09 20:27N 51°03' E 002°20'0 0.0
2018-Jun-09 19:57N 51°03' E 002°20'0 0.0
2018-Jun-09 19:27N 51°03' E 002°20'0 0.0
2018-Jun-09 19:00N 51°03' E 002°20'0 0.0
2018-Jun-09 18:30N 51°03' E 002°20'0 0.0
2018-Jun-09 18:00N 51°03' E 002°20'0 0.0
2018-Jun-09 17:30N 51°03' E 002°20'0 0.0
2018-Jun-09 17:00N 51°03' E 002°20'0 0.0
2018-Jun-09 16:27N 51°03' E 002°20'0 0.0
2018-Jun-09 16:00N 51°03' E 002°20'0 0.0
2018-Jun-09 15:00N 51°03' E 002°20'0 0.0
2018-Jun-09 14:30N 51°03' E 002°20'0 0.0
2018-Jun-09 14:00N 51°03' E 002°20'0 0.0
2018-Jun-09 13:30N 51°03' E 002°20'0 0.0
2018-Jun-09 13:00N 51°03' E 002°20'0 0.0
2018-Jun-09 12:27N 51°03' E 002°20'0 0.0
2018-Jun-09 11:54N 51°03' E 002°20'0 0.0
2018-Jun-09 11:27N 51°03' E 002°20'0 0.0
2018-Jun-09 11:00N 51°03' E 002°20'0 0.0
2018-Jun-09 10:30N 51°03' E 002°20'0 0.0
2018-Jun-09 09:48N 51°03' E 002°20'0 0.0
2018-Jun-09 09:18N 51°03' E 002°20'0 0.0
2018-Jun-09 08:48N 51°03' E 002°20'0 0.0
2018-Jun-09 08:30N 51°03' E 002°20'0 0.0
2018-Jun-09 08:00N 51°03' E 002°20'0 0.0
2018-Jun-09 06:27N 51°03' E 002°20'0 0.0
2018-Jun-09 05:42N 51°03' E 002°20'0 0.0
2018-Jun-09 05:27N 51°03' E 002°20'0 0.0
2018-Jun-09 05:00N 51°03' E 002°20'0 0.0
2018-Jun-09 04:30N 51°03' E 002°20'0 0.0
2018-Jun-09 03:57N 51°03' E 002°20'0 0.0
2018-Jun-09 03:30N 51°03' E 002°20'0 0.0
2018-Jun-09 02:54N 51°03' E 002°20'0 0.0
2018-Jun-09 02:30N 51°03' E 002°20'0 0.0
2018-Jun-09 01:16N 51°03' E 002°20'0 0.0
2018-Jun-09 00:54N 51°03' E 002°20'0 0.0
2018-Jun-09 00:27N 51°03' E 002°20'0 0.0
2018-Jun-09 00:00N 51°03' E 002°20'0 0.0
2018-Jun-08 23:30N 51°03' E 002°20'0 0.0
2018-Jun-08 23:00N 51°03' E 002°20'0 0.0
2018-Jun-08 22:30N 51°03' E 002°20'0 0.0
2018-Jun-08 22:00N 51°03' E 002°20'0 0.0
2018-Jun-08 21:30N 51°03' E 002°20'0 0.0
2018-Jun-08 20:51N 51°03' E 002°20'0 0.0
2018-Jun-08 20:30N 51°03' E 002°20'0 0.0
2018-Jun-08 20:00N 51°03' E 002°20'0 0.0
2018-Jun-08 19:30N 51°03' E 002°20'0 0.0
2018-Jun-08 18:54N 51°03' E 002°20'0 0.0
2018-Jun-08 18:30N 51°03' E 002°20'0 0.0
2018-Jun-08 18:00N 51°03' E 002°20'0 0.0
2018-Jun-08 17:30N 51°03' E 002°20'0 0.0
2018-Jun-08 17:00N 51°03' E 002°20'0 0.0
2018-Jun-08 16:30N 51°03' E 002°20'0 0.0
2018-Jun-08 16:00N 51°03' E 002°20'0 0.0
2018-Jun-08 15:30N 51°03' E 002°20'0 0.0
2018-Jun-08 15:00N 51°03' E 002°20'0 0.0
2018-Jun-08 14:30N 51°03' E 002°20'0 0.0
2018-Jun-08 14:00N 51°03' E 002°20'0 0.0
2018-Jun-08 13:30N 51°03' E 002°20'0 0.0
2018-Jun-08 13:00N 51°03' E 002°20'0 0.0
2018-Jun-08 12:27N 51°03' E 002°20'0 0.0
2018-Jun-08 12:00N 51°03' E 002°20'0 0.0
2018-Jun-08 11:30N 51°03' E 002°20'0 0.0
2018-Jun-08 11:00N 51°03' E 002°20'0 0.0
2018-Jun-08 10:30N 51°03' E 002°20'0 0.0
2018-Jun-08 10:00N 51°03' E 002°20'0 0.0
2018-Jun-08 09:30N 51°03' E 002°20'0 0.0
2018-Jun-08 09:00N 51°03' E 002°20'0 0.0
2018-Jun-08 08:27N 51°03' E 002°20'0 0.0
2018-Jun-08 08:00N 51°03' E 002°20'0 0.0
2018-Jun-08 07:30N 51°03' E 002°20'0 0.0
2018-Jun-08 07:00N 51°03' E 002°20'0 0.0
2018-Jun-08 06:30N 51°03' E 002°20'0 0.0
2018-Jun-08 05:57N 51°03' E 002°20'0 0.0
2018-Jun-08 05:30N 51°03' E 002°20'0 0.0
2018-Jun-08 04:51N 51°03' E 002°20'0 0.0
2018-Jun-08 04:27N 51°03' E 002°20'0 0.0
2018-Jun-08 03:57N 51°03' E 002°20'0 0.0
2018-Jun-08 03:27N 51°03' E 002°20'0 0.0
2018-Jun-08 03:00N 51°03' E 002°20'0 0.0
2018-Jun-08 02:27N 51°03' E 002°20'0 0.0
2018-Jun-08 02:01N 51°03' E 002°20'0 0.0
2018-Jun-08 01:30N 51°03' E 002°20'0 0.0
2018-Jun-08 01:00N 51°03' E 002°20'0 0.0
2018-Jun-08 00:00N 51°03' E 002°20'0 0.0
2018-Jun-07 23:24N 51°03' E 002°20'0 0.0
2018-Jun-07 22:57N 51°03' E 002°20'0 0.0
2018-Jun-07 22:27N 51°03' E 002°20'0 0.0
2018-Jun-07 22:00N 51°03' E 002°20'1 1.1
2018-Jun-07 21:30N 51°03' E 002°20'0 0.2
2018-Jun-07 21:00N 51°03' E 002°21'0 0.1
2018-Jun-07 20:30N 51°03' E 002°21'1 0.9
2018-Jun-07 19:55N 51°04' E 002°21'2 5.1
2018-Jun-07 19:30N 51°04' E 002°18'4 8.0
2018-Jun-07 19:00N 51°03' E 002°11'2 4.0
2018-Jun-07 18:30N 51°01' E 002°10'1 0.5
2018-Jun-07 16:35N 51°01' E 002°11'0 0.0
2018-Jun-07 13:26N 51°01' E 002°11'0 0.0
2018-Jun-07 12:11N 51°01' E 002°11'0 0.0
2018-Jun-07 11:56N 51°01' E 002°11'0 0.0
2018-Jun-07 11:20N 51°01' E 002°11'0 0.0
2018-Jun-07 10:44N 51°01' E 002°11'0 0.0
2018-Jun-07 10:17N 51°01' E 002°11'0 0.0
2018-Jun-07 09:59N 51°01' E 002°11'0 0.0
2018-Jun-07 09:26N 51°01' E 002°11'0 0.0
2018-Jun-07 08:50N 51°01' E 002°11'0 0.0
2018-Jun-07 07:53N 51°01' E 002°11'0 0.0
2018-Jun-07 07:20N 51°01' E 002°11'0 0.0
2018-Jun-07 06:02N 51°01' E 002°11'0 0.0
2018-Jun-07 05:59N 51°01' E 002°11'0 0.0
2018-Jun-07 05:23N 51°01' E 002°11'0 0.0
2018-Jun-07 04:56N 51°01' E 002°11'0 0.0
2018-Jun-07 04:26N 51°01' E 002°11'0 0.0
2018-Jun-07 03:02N 51°01' E 002°11'0 0.0
2018-Jun-07 02:05N 51°01' E 002°11'0 0.0
2018-Jun-07 01:59N 51°01' E 002°11'0 0.0
2018-Jun-07 01:23N 51°01' E 002°11'0 0.0
2018-Jun-07 00:38N 51°01' E 002°11'0 0.0
2018-Jun-07 00:29N 51°01' E 002°11'0 0.0
2018-Jun-06 23:59N 51°01' E 002°11'0 0.0
2018-Jun-06 23:14N 51°01' E 002°11'0 0.0
2018-Jun-06 22:53N 51°01' E 002°11'0 0.0
2018-Jun-06 22:26N 51°01' E 002°11'0 0.0
2018-Jun-06 21:44N 51°01' E 002°11'0 0.0
2018-Jun-06 21:20N 51°01' E 002°11'0 0.0
2018-Jun-06 20:47N 51°01' E 002°11'0 0.0
2018-Jun-06 20:29N 51°01' E 002°11'0 0.0
2018-Jun-06 19:59N 51°01' E 002°11'0 0.0
2018-Jun-06 19:17N 51°01' E 002°11'0 0.0
2018-Jun-06 18:53N 51°01' E 002°11'0 0.0
2018-Jun-06 17:23N 51°01' E 002°11'0 0.0
2018-Jun-06 16:41N 51°01' E 002°11'0 0.0
2018-Jun-06 16:20N 51°01' E 002°11'0 0.0
2018-Jun-06 15:05N 51°01' E 002°11'0 0.0
2018-Jun-06 14:47N 51°01' E 002°11'0 0.0
2018-Jun-06 14:20N 51°01' E 002°11'0 0.0
2018-Jun-06 13:56N 51°01' E 002°11'0 0.0
2018-Jun-06 13:08N 51°01' E 002°11'0 0.0
2018-Jun-06 12:59N 51°01' E 002°11'0 0.0
2018-Jun-06 12:26N 51°01' E 002°11'0 0.0
2018-Jun-06 11:56N 51°01' E 002°11'0 0.0
2018-Jun-06 11:20N 51°01' E 002°11'0 0.0
2018-Jun-06 10:59N 51°01' E 002°11'0 0.0
2018-Jun-06 10:02N 51°01' E 002°11'0 0.1
2018-Jun-06 09:59N 51°01' E 002°11'0 0.0
2018-Jun-06 09:23N 51°01' E 002°11'0 0.0
2018-Jun-06 08:59N 51°01' E 002°11'0 0.0
2018-Jun-06 08:29N 51°01' E 002°11'0 0.0
2018-Jun-06 07:59N 51°01' E 002°11'0 0.0
2018-Jun-06 07:29N 51°01' E 002°11'0 0.0
2018-Jun-06 06:11N 51°01' E 002°11'0 0.0
2018-Jun-06 05:41N 51°01' E 002°11'0 0.0
2018-Jun-06 05:20N 51°01' E 002°11'0 0.0
2018-Jun-06 04:56N 51°01' E 002°11'0 0.0
2018-Jun-06 04:26N 51°01' E 002°11'0 0.0
2018-Jun-06 03:32N 51°01' E 002°11'0 0.0
2018-Jun-06 03:29N 51°01' E 002°11'0 0.0
2018-Jun-06 02:32N 51°01' E 002°11'0 0.0
2018-Jun-06 02:17N 51°01' E 002°11'0 0.0
2018-Jun-06 01:59N 51°01' E 002°11'0 0.0
2018-Jun-06 01:26N 51°01' E 002°11'0 0.0
2018-Jun-06 00:53N 51°01' E 002°11'0 0.0
2018-Jun-06 00:26N 51°01' E 002°11'0 0.0
2018-Jun-05 23:59N 51°01' E 002°11'0 0.0
2018-Jun-05 23:20N 51°01' E 002°11'0 0.0
2018-Jun-05 22:50N 51°01' E 002°11'0 0.0
2018-Jun-05 22:23N 51°01' E 002°11'0 0.0
2018-Jun-05 21:56N 51°01' E 002°11'0 0.0
2018-Jun-05 21:17N 51°01' E 002°11'0 0.0
2018-Jun-05 20:59N 51°01' E 002°11'0 0.0
2018-Jun-05 19:56N 51°01' E 002°11'0 0.0
2018-Jun-05 19:29N 51°01' E 002°11'0 0.0
2018-Jun-05 18:44N 51°01' E 002°11'0 0.0
2018-Jun-05 17:38N 51°01' E 002°11'0 0.0
2018-Jun-05 17:20N 51°01' E 002°11'0 0.0
2018-Jun-05 16:59N 51°01' E 002°11'0 0.0
2018-Jun-05 16:26N 51°01' E 002°11'0 0.0
2018-Jun-05 15:56N 51°01' E 002°11'0 0.0
2018-Jun-05 15:29N 51°01' E 002°11'0 0.0
2018-Jun-05 14:53N 51°01' E 002°11'0 0.0
2018-Jun-05 14:20N 51°01' E 002°11'0 0.0
2018-Jun-05 13:59N 51°01' E 002°11'0 0.0
2018-Jun-05 13:29N 51°01' E 002°11'0 0.0
2018-Jun-05 12:59N 51°01' E 002°11'0 0.0
2018-Jun-05 12:19N 51°01' E 002°11'0 0.0
2018-Jun-05 11:44N 51°01' E 002°11'0 0.0
2018-Jun-05 11:20N 51°01' E 002°11'0 0.0
2018-Jun-05 10:59N 51°01' E 002°11'0 0.0
2018-Jun-05 10:23N 51°01' E 002°11'0 0.0
2018-Jun-05 09:29N 51°01' E 002°11'0 0.0
2018-Jun-05 08:47N 51°01' E 002°11'0 0.0
2018-Jun-05 08:23N 51°01' E 002°11'0 0.0
2018-Jun-05 07:47N 51°01' E 002°11'0 0.1
2018-Jun-05 06:32N 51°01' E 002°11'0 1.3
2018-Jun-05 06:17N 51°01' E 002°10'1 4.1
2018-Jun-05 05:59N 51°02' E 002°10'3 5.7
2018-Jun-05 05:30N 51°03' E 002°06'5 9.7
2018-Jun-05 05:00N 51°02' E 001°58'612.2
2018-Jun-05 04:30N 51°02' E 001°49'3 4.7
2018-Jun-05 03:59N 51°02' E 001°45'0 0.4
2018-Jun-05 03:29N 51°02' E 001°45'0 0.2
2018-Jun-05 02:58N 51°02' E 001°45'0 0.0
2018-Jun-05 02:28N 51°02' E 001°45'0 0.2
2018-Jun-05 01:59N 51°02' E 001°45'0 0.6
2018-Jun-05 01:28N 51°02' E 001°45'0 0.4
2018-Jun-05 00:58N 51°02' E 001°44'0 0.1
2018-Jun-05 00:28N 51°02' E 001°44'0 0.0
2018-Jun-04 23:58N 51°02' E 001°44'0 0.0
2018-Jun-04 23:28N 51°02' E 001°44'0 0.0
2018-Jun-04 22:40N 51°02' E 001°44'0 0.0
2018-Jun-04 22:28N 51°02' E 001°44'0 0.0
2018-Jun-04 21:52N 51°02' E 001°44'0 0.0
2018-Jun-04 21:28N 51°02' E 001°44'0 0.0
2018-Jun-04 20:53N 51°02' E 001°44'0 0.0
2018-Jun-04 20:16N 51°02' E 001°44'0 0.0
2018-Jun-04 19:58N 51°02' E 001°44'0 0.0
2018-Jun-04 19:28N 51°02' E 001°44'0 0.4
2018-Jun-04 18:58N 51°02' E 001°45'0 0.4
2018-Jun-04 18:28N 51°02' E 001°45'0 0.1
2018-Jun-04 17:58N 51°02' E 001°45'0 0.0
2018-Jun-04 17:29N 51°02' E 001°45'0 0.0
2018-Jun-04 16:59N 51°02' E 001°45'0 0.0
2018-Jun-04 16:28N 51°02' E 001°45'0 0.0
2018-Jun-04 15:58N 51°02' E 001°45'0 0.0
2018-Jun-04 15:29N 51°02' E 001°45'0 0.0
2018-Jun-04 14:58N 51°02' E 001°45'0 0.1
2018-Jun-04 14:29N 51°02' E 001°45'0 0.4
2018-Jun-04 13:58N 51°02' E 001°45'0 0.6
2018-Jun-04 13:28N 51°02' E 001°44'0 0.1
2018-Jun-04 12:59N 51°02' E 001°44'0 0.0
2018-Jun-04 12:28N 51°02' E 001°44'0 0.0
2018-Jun-04 11:59N 51°02' E 001°44'0 0.0
2018-Jun-04 10:43N 51°02' E 001°44'0 0.0
2018-Jun-04 10:23N 51°02' E 001°44'0 0.0
2018-Jun-04 09:52N 51°02' E 001°44'0 0.0
2018-Jun-04 09:28N 51°02' E 001°44'0 0.0
2018-Jun-04 08:58N 51°02' E 001°44'0 0.0
2018-Jun-04 08:28N 51°02' E 001°44'0 0.1
2018-Jun-04 07:59N 51°02' E 001°44'0 0.0
2018-Jun-04 07:28N 51°02' E 001°44'0 0.1
2018-Jun-04 06:59N 51°02' E 001°44'0 0.6
2018-Jun-04 06:28N 51°02' E 001°45'0 0.2
2018-Jun-04 05:58N 51°02' E 001°45'0 0.1
2018-Jun-04 05:28N 51°02' E 001°45'0 0.0
2018-Jun-04 04:59N 51°02' E 001°45'0 0.0
2018-Jun-04 04:29N 51°02' E 001°45'0 0.0
2018-Jun-04 03:58N 51°02' E 001°45'0 0.0
2018-Jun-04 03:29N 51°02' E 001°45'0 0.0
2018-Jun-04 02:58N 51°02' E 001°45'0 0.0
2018-Jun-04 02:29N 51°02' E 001°45'0 0.0
2018-Jun-04 01:58N 51°02' E 001°45'0 0.0
2018-Jun-04 01:28N 51°02' E 001°45'0 0.2
2018-Jun-04 00:58N 51°02' E 001°45'0 0.6
2018-Jun-04 00:28N 51°02' E 001°45'0 0.1
2018-Jun-03 23:58N 51°02' E 001°45'0 0.1
2018-Jun-03 23:28N 51°02' E 001°44'0 0.0
2018-Jun-03 22:52N 51°02' E 001°44'0 0.0
2018-Jun-03 22:28N 51°02' E 001°44'0 0.0
2018-Jun-03 21:59N 51°02' E 001°44'0 0.0
2018-Jun-03 21:25N 51°02' E 001°44'0 0.0
2018-Jun-03 20:59N 51°02' E 001°44'0 0.0
2018-Jun-03 20:29N 51°02' E 001°44'0 0.0
2018-Jun-03 19:59N 51°02' E 001°44'0 0.0
2018-Jun-03 19:28N 51°02' E 001°44'0 0.3
2018-Jun-03 18:59N 51°02' E 001°44'0 0.4
2018-Jun-03 18:25N 51°02' E 001°45'0 0.1
2018-Jun-03 17:58N 51°02' E 001°45'0 0.0
2018-Jun-03 17:28N 51°02' E 001°45'0 0.0
2018-Jun-03 16:59N 51°02' E 001°45'0 0.0
2018-Jun-03 16:28N 51°02' E 001°45'0 0.0
2018-Jun-03 15:55N 51°02' E 001°45'0 0.0
2018-Jun-03 15:28N 51°02' E 001°45'0 0.0
2018-Jun-03 14:58N 51°02' E 001°45'0 0.0
2018-Jun-03 14:28N 51°02' E 001°45'0 0.0
2018-Jun-03 13:58N 51°02' E 001°45'0 0.0
2018-Jun-03 13:25N 51°02' E 001°45'0 0.4
2018-Jun-03 12:58N 51°02' E 001°45'0 0.5
2018-Jun-03 12:29N 51°02' E 001°45'0 0.1
2018-Jun-03 11:59N 51°02' E 001°44'0 0.0
2018-Jun-03 10:52N 51°02' E 001°44'0 0.0
2018-Jun-03 10:28N 51°02' E 001°44'0 0.0
2018-Jun-03 09:58N 51°02' E 001°44'0 0.0
2018-Jun-03 09:28N 51°02' E 001°44'0 0.0
2018-Jun-03 08:55N 51°02' E 001°44'0 0.0
2018-Jun-03 08:29N 51°02' E 001°44'0 0.0
2018-Jun-03 07:59N 51°02' E 001°44'0 0.0
2018-Jun-03 07:29N 51°02' E 001°44'0 0.1
2018-Jun-03 06:58N 51°02' E 001°44'0 0.5
2018-Jun-03 06:28N 51°02' E 001°45'  
Track history (hours):
 
Tides and Currents Weather Stations Pressure Air Temp Water Temp Dewpoint Dewpoint Depression Visibility Wind Speed Wind Dir Waves Ship Positions

Berge Ishizuchi

Last reported at 2018-Jun-13 06:00 UTC. Time now 2018-Jun-24 03:32 UTC.
Position N 49°52' W 005°10'.
Warning: this ship's position is 10 days out of date.

Length 292 m; draft 10.8 m.

Type: Cargo ship. MMSI: 353562000.

Date/timePositionNaut miles runAvg speedWind from/ knotsBaromVisibWave heightAir tempDewpointWater temp
2018-Jun-13 06:00N 49°52' W 005°10'611.2
2018-Jun-13 05:30N 49°56' W 005°05'611.3
2018-Jun-13 05:00N 50°01' W 005°01'5 9.2
2018-Jun-13 04:31N 50°06' W 005°02'2 1.3
2018-Jun-13 03:01N 50°07' W 005°03'0 0.1
2018-Jun-13 02:37N 50°07' W 005°03'0 0.2
2018-Jun-13 02:25N 50°07' W 005°03'0 0.1
2018-Jun-13 01:16N 50°07' W 005°03'0 0.3
2018-Jun-13 00:58N 50°07' W 005°03'0 0.1
2018-Jun-13 00:13N 50°07' W 005°03'0 0.0
2018-Jun-12 23:43N 50°07' W 005°03'0 0.0
2018-Jun-12 23:22N 50°07' W 005°03'0 0.1
2018-Jun-12 22:49N 50°07' W 005°03'0 0.0
2018-Jun-12 22:22N 50°07' W 005°03'0 0.0
2018-Jun-12 21:46N 50°07' W 005°03'0 0.1
2018-Jun-12 21:28N 50°07' W 005°03'0 0.1
2018-Jun-12 20:41N 50°07' W 005°03'0 2.4
2018-Jun-12 20:30N 50°07' W 005°03'2 4.8
2018-Jun-12 20:00N 50°05' W 005°01'3 5.6
2018-Jun-12 19:30N 50°04' W 004°56'4 7.1
2018-Jun-12 19:00N 50°03' W 004°51'510.1
2018-Jun-12 18:30N 50°02' W 004°43'4 8.3
2018-Jun-12 18:00N 50°01' W 004°37'611.1
2018-Jun-12 17:30N 50°01' W 004°28'610.7
2018-Jun-12 16:55N 50°00' W 004°19'510.6
2018-Jun-12 16:25N 50°00' W 004°10'410.5
2018-Jun-12 16:00N 49°60' W 004°04'710.8
2018-Jun-12 15:24N 49°60' W 003°54'411.0
2018-Jun-12 15:00N 49°60' W 003°47'611.4
2018-Jun-12 14:30N 49°60' W 003°38'611.5
2018-Jun-12 14:00N 49°59' W 003°29'612.2
2018-Jun-12 13:31N 49°59' W 003°20'612.8
2018-Jun-12 13:00N 49°59' W 003°10'713.3
2018-Jun-12 12:30N 49°58' W 002°59'713.9
2018-Jun-12 12:01N 49°60' W 002°49'714.1
2018-Jun-12 11:30N 50°02' W 002°38'713.8
2018-Jun-12 11:00N 50°04' W 002°28'713.4
2018-Jun-12 10:27N 50°06' W 002°17'612.8
2018-Jun-12 10:00N 50°07' W 002°08'612.0
2018-Jun-12 09:30N 50°09' W 001°59'611.1
2018-Jun-12 09:00N 50°11' W 001°51'510.2
2018-Jun-12 08:31N 50°12' W 001°43'5 9.5
2018-Jun-12 08:00N 50°13' W 001°36'5 9.1
2018-Jun-12 07:30N 50°14' W 001°29'4 8.6
2018-Jun-12 07:00N 50°16' W 001°23'4 8.5
2018-Jun-12 06:30N 50°17' W 001°16'4 8.5
2018-Jun-12 06:01N 50°18' W 001°10'4 8.6
2018-Jun-12 05:30N 50°19' W 001°04'5 9.5
2018-Jun-12 05:00N 50°20' W 000°56'510.6
2018-Jun-12 04:30N 50°22' W 000°48'611.2
2018-Jun-12 04:00N 50°23' W 000°40'611.8
2018-Jun-12 03:30N 50°25' W 000°31'612.4
2018-Jun-12 03:00N 50°27' W 000°22'712.9
2018-Jun-12 02:30N 50°28' W 000°12'612.9
2018-Jun-12 02:00N 50°30' W 000°02'613.0
2018-Jun-12 01:30N 50°31' E 000°08'613.0
2018-Jun-12 01:00N 50°33' E 000°18'612.7
2018-Jun-12 00:30N 50°34' E 000°28'612.4
2018-Jun-12 00:00N 50°37' E 000°37'611.9
2018-Jun-11 23:30N 50°40' E 000°45'611.5
2018-Jun-11 23:00N 50°43' E 000°52'611.0
2018-Jun-11 22:30N 50°46' E 000°59'510.8
2018-Jun-11 22:00N 50°49' E 001°06'510.4
2018-Jun-11 21:30N 50°52' E 001°14'5 9.8
2018-Jun-11 21:00N 50°55' E 001°19'510.7
2018-Jun-11 20:30N 50°60' E 001°24'611.6
2018-Jun-11 20:00N 51°04' E 001°31'510.8
2018-Jun-11 19:30N 51°07' E 001°38'4 9.0
2018-Jun-11 19:00N 51°05' E 001°44'4 8.5
2018-Jun-11 18:30N 51°02' E 001°50'611.7
2018-Jun-11 18:00N 51°02' E 001°59'714.9
2018-Jun-11 17:30N 51°03' E 002°11'713.1
2018-Jun-11 17:00N 51°04' E 002°21'1 1.5
2018-Jun-11 16:30N 51°03' E 002°20'0 0.0
2018-Jun-11 16:00N 51°03' E 002°20'0 0.5
2018-Jun-11 15:30N 51°03' E 002°20'0 0.6
2018-Jun-11 15:00N 51°03' E 002°20'0 0.0
2018-Jun-11 14:27N 51°03' E 002°20'0 0.0
2018-Jun-11 14:00N 51°03' E 002°20'0 0.0
2018-Jun-11 13:30N 51°03' E 002°20'0 0.0
2018-Jun-11 13:00N 51°03' E 002°20'0 0.0
2018-Jun-11 12:30N 51°03' E 002°20'0 0.0
2018-Jun-11 12:00N 51°03' E 002°20'0 0.0
2018-Jun-11 11:30N 51°03' E 002°20'0 0.0
2018-Jun-11 11:00N 51°03' E 002°20'0 0.0
2018-Jun-11 10:30N 51°03' E 002°20'0 0.0
2018-Jun-11 10:00N 51°03' E 002°20'0 0.0
2018-Jun-11 09:30N 51°03' E 002°20'0 0.0
2018-Jun-11 09:00N 51°03' E 002°20'0 0.0
2018-Jun-11 08:30N 51°03' E 002°20'0 0.0
2018-Jun-11 08:00N 51°03' E 002°20'0 0.0
2018-Jun-11 07:30N 51°03' E 002°20'0 0.0
2018-Jun-11 06:57N 51°03' E 002°20'0 0.0
2018-Jun-11 06:24N 51°03' E 002°20'0 0.0
2018-Jun-11 06:00N 51°03' E 002°20'0 0.0
2018-Jun-11 05:30N 51°03' E 002°20'0 0.0
2018-Jun-11 04:57N 51°03' E 002°20'0 0.0
2018-Jun-11 04:24N 51°03' E 002°20'0 0.0
2018-Jun-11 04:00N 51°03' E 002°20'0 0.0
2018-Jun-11 03:30N 51°03' E 002°20'0 0.0
2018-Jun-11 03:00N 51°03' E 002°20'0 0.0
2018-Jun-11 02:30N 51°03' E 002°20'0 0.0
2018-Jun-11 02:00N 51°03' E 002°20'0 0.0
2018-Jun-11 01:30N 51°03' E 002°20'0 0.0
2018-Jun-11 01:00N 51°03' E 002°20'0 0.0
2018-Jun-11 00:27N 51°03' E 002°20'0 0.0
2018-Jun-11 00:00N 51°03' E 002°20'0 0.0
2018-Jun-10 23:30N 51°03' E 002°20'0 0.0
2018-Jun-10 23:00N 51°03' E 002°20'0 0.0
2018-Jun-10 22:27N 51°03' E 002°20'0 0.0
2018-Jun-10 21:36N 51°03' E 002°20'0 0.1
2018-Jun-10 21:30N 51°03' E 002°20'0 0.0
2018-Jun-10 20:54N 51°03' E 002°20'0 0.0
2018-Jun-10 20:30N 51°03' E 002°20'0 0.0
2018-Jun-10 20:00N 51°03' E 002°20'0 0.0
2018-Jun-10 19:27N 51°03' E 002°20'0 0.0
2018-Jun-10 19:00N 51°03' E 002°20'0 0.0
2018-Jun-10 18:30N 51°03' E 002°20'0 0.0
2018-Jun-10 17:57N 51°03' E 002°20'0 0.0
2018-Jun-10 17:30N 51°03' E 002°20'0 0.0
2018-Jun-10 16:57N 51°03' E 002°20'0 0.0
2018-Jun-10 16:30N 51°03' E 002°20'0 0.0
2018-Jun-10 16:01N 51°03' E 002°20'0 0.0
2018-Jun-10 15:30N 51°03' E 002°20'0 0.0
2018-Jun-10 15:00N 51°03' E 002°20'0 0.0
2018-Jun-10 14:30N 51°03' E 002°20'0 0.0
2018-Jun-10 13:30N 51°03' E 002°20'0 0.0
2018-Jun-10 13:00N 51°03' E 002°20'0 0.0
2018-Jun-10 12:30N 51°03' E 002°20'0 0.0
2018-Jun-10 11:57N 51°03' E 002°20'0 0.0
2018-Jun-10 11:24N 51°03' E 002°20'0 0.0
2018-Jun-10 10:57N 51°03' E 002°20'0 0.0
2018-Jun-10 10:30N 51°03' E 002°20'0 0.0
2018-Jun-10 10:00N 51°03' E 002°20'0 0.0
2018-Jun-10 09:30N 51°03' E 002°20'0 0.0
2018-Jun-10 09:00N 51°03' E 002°20'0 0.0
2018-Jun-10 08:30N 51°03' E 002°20'0 0.0
2018-Jun-10 08:00N 51°03' E 002°20'0 0.0
2018-Jun-10 07:24N 51°03' E 002°20'0 0.0
2018-Jun-10 07:00N 51°03' E 002°20'0 0.0
2018-Jun-10 06:30N 51°03' E 002°20'0 0.0
2018-Jun-10 06:00N 51°03' E 002°20'0 0.0
2018-Jun-10 05:30N 51°03' E 002°20'0 0.0
2018-Jun-10 04:57N 51°03' E 002°20'0 0.0
2018-Jun-10 04:00N 51°03' E 002°20'0 0.0
2018-Jun-10 03:30N 51°03' E 002°20'0 0.0
2018-Jun-10 03:00N 51°03' E 002°20'0 0.0
2018-Jun-10 02:30N 51°03' E 002°20'0 0.0
2018-Jun-10 02:00N 51°03' E 002°20'0 0.0
2018-Jun-10 01:30N 51°03' E 002°20'0 0.0
2018-Jun-10 01:00N 51°03' E 002°20'0 0.0
2018-Jun-10 00:30N 51°03' E 002°20'0 0.0
2018-Jun-10 00:00N 51°03' E 002°20'0 0.0
2018-Jun-09 23:18N 51°03' E 002°20'0 0.0
2018-Jun-09 22:57N 51°03' E 002°20'0 0.0
2018-Jun-09 22:30N 51°03' E 002°20'0 0.0
2018-Jun-09 21:57N 51°03' E 002°20'0 0.0
2018-Jun-09 21:30N 51°03' E 002°20'0 0.0
2018-Jun-09 21:00N 51°03' E 002°20'0 0.0
2018-Jun-09 20:27N 51°03' E 002°20'0 0.0
2018-Jun-09 19:57N 51°03' E 002°20'0 0.0
2018-Jun-09 19:27N 51°03' E 002°20'0 0.0
2018-Jun-09 19:00N 51°03' E 002°20'0 0.0
2018-Jun-09 18:30N 51°03' E 002°20'0 0.0
2018-Jun-09 18:00N 51°03' E 002°20'0 0.0
2018-Jun-09 17:30N 51°03' E 002°20'0 0.0
2018-Jun-09 17:00N 51°03' E 002°20'0 0.0
2018-Jun-09 16:27N 51°03' E 002°20'0 0.0
2018-Jun-09 16:00N 51°03' E 002°20'0 0.0
2018-Jun-09 15:00N 51°03' E 002°20'0 0.0
2018-Jun-09 14:30N 51°03' E 002°20'0 0.0
2018-Jun-09 14:00N 51°03' E 002°20'0 0.0
2018-Jun-09 13:30N 51°03' E 002°20'0 0.0
2018-Jun-09 13:00N 51°03' E 002°20'0 0.0
2018-Jun-09 12:27N 51°03' E 002°20'0 0.0
2018-Jun-09 11:54N 51°03' E 002°20'0 0.0
2018-Jun-09 11:27N 51°03' E 002°20'0 0.0
2018-Jun-09 11:00N 51°03' E 002°20'0 0.0
2018-Jun-09 10:30N 51°03' E 002°20'0 0.0
2018-Jun-09 09:48N 51°03' E 002°20'0 0.0
2018-Jun-09 09:18N 51°03' E 002°20'0 0.0
2018-Jun-09 08:48N 51°03' E 002°20'0 0.0
2018-Jun-09 08:30N 51°03' E 002°20'0 0.0
2018-Jun-09 08:00N 51°03' E 002°20'0 0.0
2018-Jun-09 06:27N 51°03' E 002°20'0 0.0
2018-Jun-09 05:42N 51°03' E 002°20'0 0.0
2018-Jun-09 05:27N 51°03' E 002°20'0 0.0
2018-Jun-09 05:00N 51°03' E 002°20'0 0.0
2018-Jun-09 04:30N 51°03' E 002°20'0 0.0
2018-Jun-09 03:57N 51°03' E 002°20'0 0.0
2018-Jun-09 03:30N 51°03' E 002°20'0 0.0
2018-Jun-09 02:54N 51°03' E 002°20'0 0.0
2018-Jun-09 02:30N 51°03' E 002°20'0 0.0
2018-Jun-09 01:16N 51°03' E 002°20'0 0.0
2018-Jun-09 00:54N 51°03' E 002°20'0 0.0
2018-Jun-09 00:27N 51°03' E 002°20'0 0.0
2018-Jun-09 00:00N 51°03' E 002°20'0 0.0
2018-Jun-08 23:30N 51°03' E 002°20'0 0.0
2018-Jun-08 23:00N 51°03' E 002°20'0 0.0
2018-Jun-08 22:30N 51°03' E 002°20'0 0.0
2018-Jun-08 22:00N 51°03' E 002°20'0 0.0
2018-Jun-08 21:30N 51°03' E 002°20'0 0.0
2018-Jun-08 20:51N 51°03' E 002°20'0 0.0
2018-Jun-08 20:30N 51°03' E 002°20'0 0.0
2018-Jun-08 20:00N 51°03' E 002°20'0 0.0
2018-Jun-08 19:30N 51°03' E 002°20'0 0.0
2018-Jun-08 18:54N 51°03' E 002°20'0 0.0
2018-Jun-08 18:30N 51°03' E 002°20'0 0.0
2018-Jun-08 18:00N 51°03' E 002°20'0 0.0
2018-Jun-08 17:30N 51°03' E 002°20'0 0.0
2018-Jun-08 17:00N 51°03' E 002°20'0 0.0
2018-Jun-08 16:30N 51°03' E 002°20'0 0.0
2018-Jun-08 16:00N 51°03' E 002°20'0 0.0
2018-Jun-08 15:30N 51°03' E 002°20'0 0.0
2018-Jun-08 15:00N 51°03' E 002°20'0 0.0
2018-Jun-08 14:30N 51°03' E 002°20'0 0.0
2018-Jun-08 14:00N 51°03' E 002°20'0 0.0
2018-Jun-08 13:30N 51°03' E 002°20'0 0.0
2018-Jun-08 13:00N 51°03' E 002°20'0 0.0
2018-Jun-08 12:27N 51°03' E 002°20'0 0.0
2018-Jun-08 12:00N 51°03' E 002°20'0 0.0
2018-Jun-08 11:30N 51°03' E 002°20'0 0.0
2018-Jun-08 11:00N 51°03' E 002°20'0 0.0
2018-Jun-08 10:30N 51°03' E 002°20'0 0.0
2018-Jun-08 10:00N 51°03' E 002°20'0 0.0
2018-Jun-08 09:30N 51°03' E 002°20'0 0.0
2018-Jun-08 09:00N 51°03' E 002°20'0 0.0
2018-Jun-08 08:27N 51°03' E 002°20'0 0.0
2018-Jun-08 08:00N 51°03' E 002°20'0 0.0
2018-Jun-08 07:30N 51°03' E 002°20'0 0.0
2018-Jun-08 07:00N 51°03' E 002°20'0 0.0
2018-Jun-08 06:30N 51°03' E 002°20'0 0.0
2018-Jun-08 05:57N 51°03' E 002°20'0 0.0
2018-Jun-08 05:30N 51°03' E 002°20'0 0.0
2018-Jun-08 04:51N 51°03' E 002°20'0 0.0
2018-Jun-08 04:27N 51°03' E 002°20'0 0.0
2018-Jun-08 03:57N 51°03' E 002°20'0 0.0
2018-Jun-08 03:27N 51°03' E 002°20'0 0.0
2018-Jun-08 03:00N 51°03' E 002°20'0 0.0
2018-Jun-08 02:27N 51°03' E 002°20'0 0.0
2018-Jun-08 02:01N 51°03' E 002°20'0 0.0
2018-Jun-08 01:30N 51°03' E 002°20'0 0.0
2018-Jun-08 01:00N 51°03' E 002°20'0 0.0
2018-Jun-08 00:00N 51°03' E 002°20'0 0.0
2018-Jun-07 23:24N 51°03' E 002°20'0 0.0
2018-Jun-07 22:57N 51°03' E 002°20'0 0.0
2018-Jun-07 22:27N 51°03' E 002°20'0 0.0
2018-Jun-07 22:00N 51°03' E 002°20'1 1.1
2018-Jun-07 21:30N 51°03' E 002°20'0 0.2
2018-Jun-07 21:00N 51°03' E 002°21'0 0.1
2018-Jun-07 20:30N 51°03' E 002°21'1 0.9
2018-Jun-07 19:55N 51°04' E 002°21'2 5.1
2018-Jun-07 19:30N 51°04' E 002°18'4 8.0
2018-Jun-07 19:00N 51°03' E 002°11'2 4.0
2018-Jun-07 18:30N 51°01' E 002°10'1 0.5
2018-Jun-07 16:35N 51°01' E 002°11'0 0.0
2018-Jun-07 13:26N 51°01' E 002°11'0 0.0
2018-Jun-07 12:11N 51°01' E 002°11'0 0.0
2018-Jun-07 11:56N 51°01' E 002°11'0 0.0
2018-Jun-07 11:20N 51°01' E 002°11'0 0.0
2018-Jun-07 10:44N 51°01' E 002°11'0 0.0
2018-Jun-07 10:17N 51°01' E 002°11'0 0.0
2018-Jun-07 09:59N 51°01' E 002°11'0 0.0
2018-Jun-07 09:26N 51°01' E 002°11'0 0.0
2018-Jun-07 08:50N 51°01' E 002°11'0 0.0
2018-Jun-07 07:53N 51°01' E 002°11'0 0.0
2018-Jun-07 07:20N 51°01' E 002°11'0 0.0
2018-Jun-07 06:02N 51°01' E 002°11'0 0.0
2018-Jun-07 05:59N 51°01' E 002°11'0 0.0
2018-Jun-07 05:23N 51°01' E 002°11'0 0.0
2018-Jun-07 04:56N 51°01' E 002°11'0 0.0
2018-Jun-07 04:26N 51°01' E 002°11'0 0.0
2018-Jun-07 03:02N 51°01' E 002°11'0 0.0
2018-Jun-07 02:05N 51°01' E 002°11'0 0.0
2018-Jun-07 01:59N 51°01' E 002°11'0 0.0
2018-Jun-07 01:23N 51°01' E 002°11'0 0.0
2018-Jun-07 00:38N 51°01' E 002°11'0 0.0
2018-Jun-07 00:29N 51°01' E 002°11'0 0.0
2018-Jun-06 23:59N 51°01' E 002°11'0 0.0
2018-Jun-06 23:14N 51°01' E 002°11'0 0.0
2018-Jun-06 22:53N 51°01' E 002°11'0 0.0
2018-Jun-06 22:26N 51°01' E 002°11'0 0.0
2018-Jun-06 21:44N 51°01' E 002°11'0 0.0
2018-Jun-06 21:20N 51°01' E 002°11'0 0.0
2018-Jun-06 20:47N 51°01' E 002°11'0 0.0
2018-Jun-06 20:29N 51°01' E 002°11'0 0.0
2018-Jun-06 19:59N 51°01' E 002°11'0 0.0
2018-Jun-06 19:17N 51°01' E 002°11'0 0.0
2018-Jun-06 18:53N 51°01' E 002°11'0 0.0
2018-Jun-06 17:23N 51°01' E 002°11'0 0.0
2018-Jun-06 16:41N 51°01' E 002°11'0 0.0
2018-Jun-06 16:20N 51°01' E 002°11'0 0.0
2018-Jun-06 15:05N 51°01' E 002°11'0 0.0
2018-Jun-06 14:47N 51°01' E 002°11'0 0.0
2018-Jun-06 14:20N 51°01' E 002°11'0 0.0
2018-Jun-06 13:56N 51°01' E 002°11'0 0.0
2018-Jun-06 13:08N 51°01' E 002°11'0 0.0
2018-Jun-06 12:59N 51°01' E 002°11'0 0.0
2018-Jun-06 12:26N 51°01' E 002°11'0 0.0
2018-Jun-06 11:56N 51°01' E 002°11'0 0.0
2018-Jun-06 11:20N 51°01' E 002°11'0 0.0
2018-Jun-06 10:59N 51°01' E 002°11'0 0.0
2018-Jun-06 10:02N 51°01' E 002°11'0 0.1
2018-Jun-06 09:59N 51°01' E 002°11'0 0.0
2018-Jun-06 09:23N 51°01' E 002°11'0 0.0
2018-Jun-06 08:59N 51°01' E 002°11'0 0.0
2018-Jun-06 08:29N 51°01' E 002°11'0 0.0
2018-Jun-06 07:59N 51°01' E 002°11'0 0.0
2018-Jun-06 07:29N 51°01' E 002°11'0 0.0
2018-Jun-06 06:11N 51°01' E 002°11'0 0.0
2018-Jun-06 05:41N 51°01' E 002°11'0 0.0
2018-Jun-06 05:20N 51°01' E 002°11'0 0.0
2018-Jun-06 04:56N 51°01' E 002°11'0 0.0
2018-Jun-06 04:26N 51°01' E 002°11'0 0.0
2018-Jun-06 03:32N 51°01' E 002°11'0 0.0
2018-Jun-06 03:29N 51°01' E 002°11'0 0.0
2018-Jun-06 02:32N 51°01' E 002°11'0 0.0
2018-Jun-06 02:17N 51°01' E 002°11'0 0.0
2018-Jun-06 01:59N 51°01' E 002°11'0 0.0
2018-Jun-06 01:26N 51°01' E 002°11'0 0.0
2018-Jun-06 00:53N 51°01' E 002°11'0 0.0
2018-Jun-06 00:26N 51°01' E 002°11'0 0.0
2018-Jun-05 23:59N 51°01' E 002°11'0 0.0
2018-Jun-05 23:20N 51°01' E 002°11'0 0.0
2018-Jun-05 22:50N 51°01' E 002°11'0 0.0
2018-Jun-05 22:23N 51°01' E 002°11'0 0.0
2018-Jun-05 21:56N 51°01' E 002°11'0 0.0
2018-Jun-05 21:17N 51°01' E 002°11'0 0.0
2018-Jun-05 20:59N 51°01' E 002°11'0 0.0
2018-Jun-05 19:56N 51°01' E 002°11'0 0.0
2018-Jun-05 19:29N 51°01' E 002°11'0 0.0
2018-Jun-05 18:44N 51°01' E 002°11'0 0.0
2018-Jun-05 17:38N 51°01' E 002°11'0 0.0
2018-Jun-05 17:20N 51°01' E 002°11'0 0.0
2018-Jun-05 16:59N 51°01' E 002°11'0 0.0
2018-Jun-05 16:26N 51°01' E 002°11'0 0.0
2018-Jun-05 15:56N 51°01' E 002°11'0 0.0
2018-Jun-05 15:29N 51°01' E 002°11'0 0.0
2018-Jun-05 14:53N 51°01' E 002°11'0 0.0
2018-Jun-05 14:20N 51°01' E 002°11'0 0.0
2018-Jun-05 13:59N 51°01' E 002°11'0 0.0
2018-Jun-05 13:29N 51°01' E 002°11'0 0.0
2018-Jun-05 12:59N 51°01' E 002°11'0 0.0
2018-Jun-05 12:19N 51°01' E 002°11'0 0.0
2018-Jun-05 11:44N 51°01' E 002°11'0 0.0
2018-Jun-05 11:20N 51°01' E 002°11'0 0.0
2018-Jun-05 10:59N 51°01' E 002°11'0 0.0
2018-Jun-05 10:23N 51°01' E 002°11'0 0.0
2018-Jun-05 09:29N 51°01' E 002°11'0 0.0
2018-Jun-05 08:47N 51°01' E 002°11'0 0.0
2018-Jun-05 08:23N 51°01' E 002°11'0 0.0
2018-Jun-05 07:47N 51°01' E 002°11'0 0.1
2018-Jun-05 06:32N 51°01' E 002°11'0 1.3
2018-Jun-05 06:17N 51°01' E 002°10'1 4.1
2018-Jun-05 05:59N 51°02' E 002°10'3 5.7
2018-Jun-05 05:30N 51°03' E 002°06'5 9.7
2018-Jun-05 05:00N 51°02' E 001°58'612.2
2018-Jun-05 04:30N 51°02' E 001°49'3 4.7
2018-Jun-05 03:59N 51°02' E 001°45'0 0.4
2018-Jun-05 03:29N 51°02' E 001°45'0 0.2
2018-Jun-05 02:58N 51°02' E 001°45'0 0.0
2018-Jun-05 02:28N 51°02' E 001°45'0 0.2
2018-Jun-05 01:59N 51°02' E 001°45'0 0.6
2018-Jun-05 01:28N 51°02' E 001°45'0 0.4
2018-Jun-05 00:58N 51°02' E 001°44'0 0.1
2018-Jun-05 00:28N 51°02' E 001°44'0 0.0
2018-Jun-04 23:58N 51°02' E 001°44'0 0.0
2018-Jun-04 23:28N 51°02' E 001°44'0 0.0
2018-Jun-04 22:40N 51°02' E 001°44'0 0.0
2018-Jun-04 22:28N 51°02' E 001°44'0 0.0
2018-Jun-04 21:52N 51°02' E 001°44'0 0.0
2018-Jun-04 21:28N 51°02' E 001°44'0 0.0
2018-Jun-04 20:53N 51°02' E 001°44'0 0.0
2018-Jun-04 20:16N 51°02' E 001°44'0 0.0
2018-Jun-04 19:58N 51°02' E 001°44'0 0.0
2018-Jun-04 19:28N 51°02' E 001°44'0 0.4
2018-Jun-04 18:58N 51°02' E 001°45'0 0.4
2018-Jun-04 18:28N 51°02' E 001°45'0 0.1
2018-Jun-04 17:58N 51°02' E 001°45'0 0.0
2018-Jun-04 17:29N 51°02' E 001°45'0 0.0
2018-Jun-04 16:59N 51°02' E 001°45'0 0.0
2018-Jun-04 16:28N 51°02' E 001°45'0 0.0
2018-Jun-04 15:58N 51°02' E 001°45'0 0.0
2018-Jun-04 15:29N 51°02' E 001°45'0 0.0
2018-Jun-04 14:58N 51°02' E 001°45'0 0.1
2018-Jun-04 14:29N 51°02' E 001°45'0 0.4
2018-Jun-04 13:58N 51°02' E 001°45'0 0.6
2018-Jun-04 13:28N 51°02' E 001°44'0 0.1
2018-Jun-04 12:59N 51°02' E 001°44'0 0.0
2018-Jun-04 12:28N 51°02' E 001°44'0 0.0
2018-Jun-04 11:59N 51°02' E 001°44'0 0.0
2018-Jun-04 10:43N 51°02' E 001°44'0 0.0
2018-Jun-04 10:23N 51°02' E 001°44'0 0.0
2018-Jun-04 09:52N 51°02' E 001°44'0 0.0
2018-Jun-04 09:28N 51°02' E 001°44'0 0.0
2018-Jun-04 08:58N 51°02' E 001°44'0 0.0
2018-Jun-04 08:28N 51°02' E 001°44'0 0.1
2018-Jun-04 07:59N 51°02' E 001°44'0 0.0
2018-Jun-04 07:28N 51°02' E 001°44'0 0.1
2018-Jun-04 06:59N 51°02' E 001°44'0 0.6
2018-Jun-04 06:28N 51°02' E 001°45'0 0.2
2018-Jun-04 05:58N 51°02' E 001°45'0 0.1
2018-Jun-04 05:28N 51°02' E 001°45'0 0.0
2018-Jun-04 04:59N 51°02' E 001°45'0 0.0
2018-Jun-04 04:29N 51°02' E 001°45'0 0.0
2018-Jun-04 03:58N 51°02' E 001°45'0 0.0
2018-Jun-04 03:29N 51°02' E 001°45'0 0.0
2018-Jun-04 02:58N 51°02' E 001°45'0 0.0
2018-Jun-04 02:29N 51°02' E 001°45'0 0.0
2018-Jun-04 01:58N 51°02' E 001°45'0 0.0
2018-Jun-04 01:28N 51°02' E 001°45'0 0.2
2018-Jun-04 00:58N 51°02' E 001°45'0 0.6
2018-Jun-04 00:28N 51°02' E 001°45'0 0.1
2018-Jun-03 23:58N 51°02' E 001°45'0 0.1
2018-Jun-03 23:28N 51°02' E 001°44'0 0.0
2018-Jun-03 22:52N 51°02' E 001°44'0 0.0
2018-Jun-03 22:28N 51°02' E 001°44'0 0.0
2018-Jun-03 21:59N 51°02' E 001°44'0 0.0
2018-Jun-03 21:25N 51°02' E 001°44'0 0.0
2018-Jun-03 20:59N 51°02' E 001°44'0 0.0
2018-Jun-03 20:29N 51°02' E 001°44'0 0.0
2018-Jun-03 19:59N 51°02' E 001°44'0 0.0
2018-Jun-03 19:28N 51°02' E 001°44'0 0.3
2018-Jun-03 18:59N 51°02' E 001°44'0 0.4
2018-Jun-03 18:25N 51°02' E 001°45'0 0.1
2018-Jun-03 17:58N 51°02' E 001°45'0 0.0
2018-Jun-03 17:28N 51°02' E 001°45'0 0.0
2018-Jun-03 16:59N 51°02' E 001°45'0 0.0
2018-Jun-03 16:28N 51°02' E 001°45'0 0.0
2018-Jun-03 15:55N 51°02' E 001°45'0 0.0
2018-Jun-03 15:28N 51°02' E 001°45'0 0.0
2018-Jun-03 14:58N 51°02' E 001°45'0 0.0
2018-Jun-03 14:28N 51°02' E 001°45'0 0.0
2018-Jun-03 13:58N 51°02' E 001°45'0 0.0
2018-Jun-03 13:25N 51°02' E 001°45'0 0.4
2018-Jun-03 12:58N 51°02' E 001°45'0 0.5
2018-Jun-03 12:29N 51°02' E 001°45'0 0.1
2018-Jun-03 11:59N 51°02' E 001°44'0 0.0
2018-Jun-03 10:52N 51°02' E 001°44'0 0.0
2018-Jun-03 10:28N 51°02' E 001°44'0 0.0
2018-Jun-03 09:58N 51°02' E 001°44'0 0.0
2018-Jun-03 09:28N 51°02' E 001°44'0 0.0
2018-Jun-03 08:55N 51°02' E 001°44'0 0.0
2018-Jun-03 08:29N 51°02' E 001°44'0 0.0
2018-Jun-03 07:59N 51°02' E 001°44'0 0.0
2018-Jun-03 07:29N 51°02' E 001°44'0 0.1
2018-Jun-03 06:58N 51°02' E 001°44'0 0.5
2018-Jun-03 06:28N 51°02' E 001°45'  

Dump ship's entire track history